Terminal Aerodrome Forecast
Issued by NWS

Home | Current Version | Previous Version | Text Only | Print | Product List | Glossary On
Versions: 1 2 3 4 5 6 7 8 9 10 11 12 13 14
865
FTUS45 KTFX 151728
TAFGTF
TAF
KGTF 151728Z 1518/1618 22022G30KT P6SM BKN150
      TEMPO 1518/1520 22030G38KT
     FM160000 22012KT P6SM SCT060 BKN150
     FM160300 35010KT 3SM -SN BR SCT005 OVC030=

USA.gov is the U.S. government's official web portal to all federal, state and local government web resources and services.